Time;durP1;ratioP1;P1;durP2;ratioP2;P2;SDS_P1;SDS_P2;PMS_P1;PMS_P2;Temp;Humidity;BMP_temperature;BMP_pressure;BME280_temperature;BME280_humidity;BME280_pressure;Samples;Min_cycle;Max_cycle;Signal;HPM_P1;HPM_P2
2023/01/03 00:01:33;;;;;;;665.22;608.47;;;21.30;78.90;;;;;;5083782;28;20206;-42
2023/01/03 00:04:01;;;;;;;654.97;598.88;;;21.30;78.90;;;;;;5082986;28;20200;-42
2023/01/03 00:06:30;;;;;;;658.67;603.08;;;21.30;78.90;;;;;;5083743;28;20199;-47
2023/01/03 00:08:58;;;;;;;654.83;602.83;;;21.30;78.90;;;;;;5081612;28;20222;-42
2023/01/03 00:14:09;;;;;;;639.70;586.20;;;21.30;78.90;;;;;;5085502;28;20670;-44
2023/01/03 00:16:36;;;;;;;654.95;602.03;;;21.30;79.00;;;;;;5086211;28;20694;-41
2023/01/03 00:19:07;;;;;;;649.28;597.40;;;21.20;78.90;;;;;;5088625;28;20195;-42
2023/01/03 00:21:34;;;;;;;640.80;593.47;;;21.30;78.90;;;;;;5085300;28;20210;-44
2023/01/03 00:24:01;;;;;;;676.92;628.50;;;21.30;79.20;;;;;;5086230;28;20203;-40
2023/01/03 00:26:28;;;;;;;642.78;597.55;;;21.20;80.80;;;;;;5089652;28;20196;-44
2023/01/03 00:28:55;;;;;;;624.50;578.05;;;21.10;81.20;;;;;;5085774;28;20209;-41
2023/01/03 00:31:22;;;;;;;593.10;556.40;;;21.00;81.50;;;;;;5085249;28;20225;-42
2023/01/03 00:33:49;;;;;;;576.03;541.45;;;21.00;81.20;;;;;;5080391;28;20194;-43
2023/01/03 00:36:17;;;;;;;583.55;549.22;;;21.10;80.80;;;;;;5089057;28;20191;-41
2023/01/03 00:38:44;;;;;;;593.50;556.33;;;21.10;80.30;;;;;;5088561;28;20187;-41
2023/01/03 00:41:13;;;;;;;628.20;581.90;;;21.10;80.20;;;;;;5088448;28;20206;-41
2023/01/03 00:43:41;;;;;;;598.33;553.92;;;21.10;80.00;;;;;;5088276;28;20199;-41
2023/01/03 00:46:09;;;;;;;612.50;568.35;;;21.10;79.90;;;;;;5086370;28;20187;-42
2023/01/03 00:48:36;;;;;;;608.33;564.08;;;21.10;79.80;;;;;;5085859;28;20203;-40
2023/01/03 00:51:06;;;;;;;599.70;556.92;;;21.10;79.80;;;;;;5085689;28;20196;-42
2023/01/03 00:53:34;;;;;;;609.90;565.88;;;21.10;79.80;;;;;;5086987;28;20195;-41
2023/01/03 00:56:05;;;;;;;613.70;569.08;;;21.10;79.90;;;;;;5084816;28;20230;-41
2023/01/03 00:58:33;;;;;;;619.85;573.67;;;21.00;79.80;;;;;;5080248;28;20199;-41
2023/01/03 01:01:05;;;;;;;620.92;574.47;;;21.00;79.80;;;;;;5088718;28;20611;-40
2023/01/03 01:03:32;;;;;;;611.88;566.92;;;21.00;79.80;;;;;;5082818;28;20655;-41
2023/01/03 01:05:58;;;;;;;628.28;581.35;;;21.00;79.90;;;;;;5084599;28;20199;-44
2023/01/03 01:08:25;;;;;;;647.40;596.67;;;21.00;79.90;;;;;;5087786;28;20201;-41
2023/01/03 01:11:02;;;;;;;617.03;568.88;;;20.90;79.90;;;;;;5087564;28;21680;-42
2023/01/03 01:13:29;;;;;;;632.90;584.38;;;20.90;79.90;;;;;;5088140;28;20567;-42
2023/01/03 01:15:56;;;;;;;613.45;565.35;;;20.90;80.20;;;;;;5086002;28;20194;-41
2023/01/03 01:18:22;;;;;;;639.60;588.60;;;20.90;80.50;;;;;;5084112;28;20194;-41
2023/01/03 01:20:49;;;;;;;622.13;572.47;;;21.00;80.40;;;;;;5085284;28;20216;-41
2023/01/03 01:23:16;;;;;;;616.17;568.33;;;21.00;80.00;;;;;;5082684;28;20202;-42
2023/01/03 01:25:42;;;;;;;637.45;587.90;;;21.10;79.80;;;;;;5084023;28;20202;-41
2023/01/03 01:28:10;;;;;;;622.97;575.38;;;21.10;79.70;;;;;;5091254;28;20253;-41
2023/01/03 01:30:37;;;;;;;635.00;584.83;;;21.10;79.60;;;;;;5079225;28;20199;-42
2023/01/03 01:33:04;;;;;;;639.33;590.08;;;21.20;79.70;;;;;;5078841;28;21685;-41
2023/01/03 01:35:31;;;;;;;631.90;580.85;;;21.00;79.60;;;;;;5090286;28;20199;-41
2023/01/03 01:37:58;;;;;;;620.08;569.78;;;20.90;80.40;;;;;;5082831;28;20201;-42
2023/01/03 01:40:25;;;;;;;627.05;576.03;;;21.00;79.80;;;;;;5086533;28;20686;-42
2023/01/03 01:45:35;;;;;;;638.95;587.15;;;20.90;79.90;;;;;;5060293;28;20218;-41
2023/01/03 01:48:06;;;;;;;639.17;586.35;;;20.90;79.90;;;;;;5085109;28;20578;-41
2023/01/03 01:50:38;;;;;;;634.47;580.35;;;21.00;79.60;;;;;;5085508;28;20198;-40
2023/01/03 01:53:09;;;;;;;638.47;584.42;;;21.00;79.40;;;;;;5088911;28;20215;-40
2023/01/03 01:55:41;;;;;;;617.47;563.50;;;21.00;79.30;;;;;;5085419;28;20194;-41
2023/01/03 01:58:09;;;;;;;630.33;577.13;;;21.00;79.30;;;;;;5086182;28;20198;-41
2023/01/03 02:00:39;;;;;;;641.50;586.28;;;21.00;79.30;;;;;;5079869;28;20199;-46
2023/01/03 02:03:06;;;;;;;625.58;571.63;;;21.00;79.40;;;;;;5083996;28;20559;-41
2023/01/03 02:05:36;;;;;;;640.70;586.15;;;20.90;79.30;;;;;;5079341;28;20902;-41
2023/01/03 02:08:03;;;;;;;624.92;571.15;;;20.90;79.30;;;;;;5087871;28;20201;-41
2023/01/03 02:10:43;;;;;;;638.28;584.85;;;20.90;79.40;;;;;;5086404;28;20202;-41
2023/01/03 02:13:19;;;;;;;636.42;582.17;;;20.90;79.40;;;;;;5072519;28;20693;-42
2023/01/03 02:15:57;;;;;;;637.63;576.83;;;20.90;79.40;;;;;;5076821;28;20199;-44
2023/01/03 02:18:38;;;;;;;650.53;588.47;;;20.90;79.50;;;;;;5083858;28;20206;-41
2023/01/03 02:21:37;;;;;;;658.58;597.67;;;20.80;79.50;;;;;;5083369;28;20699;-41
2023/01/03 02:24:37;;;;;;;638.10;578.78;;;20.80;79.50;;;;;;5081216;28;20194;-41
2023/01/03 02:27:18;;;;;;;620.42;562.67;;;20.80;79.60;;;;;;5081760;28;20187;-44
2023/01/03 02:30:20;;;;;;;645.78;585.70;;;20.80;79.70;;;;;;5083977;28;20187;-41
2023/01/03 02:32:52;;;;;;;632.53;578.17;;;20.70;79.60;;;;;;5082043;28;20218;-41
2023/01/03 02:35:26;;;;;;;637.30;579.30;;;20.70;79.80;;;;;;5073183;28;20195;-41
2023/01/03 02:37:58;;;;;;;646.38;591.90;;;20.70;79.90;;;;;;5082761;28;20198;-40
2023/01/03 02:40:30;;;;;;;644.95;588.00;;;20.70;80.00;;;;;;5082819;28;20202;-43
2023/01/03 02:43:04;;;;;;;632.10;573.67;;;20.60;80.00;;;;;;5080145;28;20571;-41
2023/01/03 02:45:58;;;;;;;663.42;601.20;;;20.60;80.10;;;;;;5082657;28;20202;-42
2023/01/03 02:48:36;;;;;;;664.20;600.00;;;20.60;80.20;;;;;;5082621;28;20604;-41
2023/01/03 02:51:08;;;;;;;652.15;583.63;;;20.70;80.30;;;;;;5087393;28;20281;-41
2023/01/03 02:53:38;;;;;;;659.30;586.95;;;20.80;80.00;;;;;;5084952;28;20349;-44
2023/01/03 02:56:09;;;;;;;647.00;580.20;;;20.80;79.70;;;;;;5085523;28;20209;-41
2023/01/03 02:58:39;;;;;;;655.50;592.65;;;20.80;79.50;;;;;;5085483;28;20195;-41
2023/01/03 03:01:10;;;;;;;659.50;591.13;;;20.90;79.50;;;;;;5084684;28;20196;-41
2023/01/03 03:03:39;;;;;;;676.55;607.30;;;20.90;79.40;;;;;;5084651;28;20206;-42
2023/01/03 03:06:12;;;;;;;658.72;591.72;;;20.80;79.30;;;;;;5087924;28;20266;-46
2023/01/03 03:08:39;;;;;;;664.80;594.72;;;20.80;79.30;;;;;;5084298;28;20195;-43
2023/01/03 03:13:55;;;;;;;658.67;589.13;;;20.80;79.30;;;;;;5086733;28;20704;-42
2023/01/03 03:24:48;;;;;;;640.08;577.83;;;20.80;79.10;;;;;;5075950;28;22310;-42
2023/01/03 03:24:55;;;;;;;645.72;587.95;;;20.80;79.20;;;;;;5080988;28;20205;-41
2023/01/03 03:30:14;;;;;;;649.72;592.30;;;20.80;79.20;;;;;;5082623;28;20197;-43
2023/01/03 03:32:44;;;;;;;635.08;577.30;;;20.70;79.20;;;;;;5079890;28;20578;-40
2023/01/03 03:35:15;;;;;;;648.97;590.45;;;20.70;79.30;;;;;;5083987;28;20193;-40
2023/01/03 03:37:45;;;;;;;654.30;594.58;;;20.70;79.30;;;;;;5084115;28;20245;-41
2023/01/03 03:45:50;;;;;;;646.00;585.75;;;20.60;79.40;;;;;;5087556;28;20209;-41
2023/01/03 03:48:23;;;;;;;645.47;590.42;;;20.60;79.40;;;;;;5088900;28;20202;-40
2023/01/03 03:50:52;;;;;;;644.20;587.00;;;20.60;79.50;;;;;;5087825;28;20666;-42
2023/01/03 03:53:27;;;;;;;658.67;597.58;;;20.60;79.50;;;;;;5089860;28;20209;-41
2023/01/03 03:55:59;;;;;;;652.17;590.58;;;20.60;79.60;;;;;;5087018;28;20191;-41
2023/01/03 03:58:29;;;;;;;641.58;577.67;;;20.60;79.70;;;;;;5089910;28;20684;-42
2023/01/03 04:00:57;;;;;;;697.53;631.63;;;20.50;79.70;;;;;;5082058;28;20187;-41
2023/01/03 04:03:26;;;;;;;655.92;588.95;;;20.50;79.70;;;;;;5086956;28;20205;-41
2023/01/03 04:05:57;;;;;;;651.25;585.00;;;20.50;79.80;;;;;;5089715;28;20570;-43
2023/01/03 04:08:24;;;;;;;653.15;586.10;;;20.50;79.90;;;;;;5085863;28;20197;-42
2023/01/03 04:10:51;;;;;;;662.25;597.45;;;20.80;80.30;;;;;;5085336;28;20557;-40
2023/01/03 04:13:18;;;;;;;659.80;592.92;;;20.60;79.90;;;;;;5088694;28;20578;-43
2023/01/03 04:15:44;;;;;;;650.67;583.20;;;20.70;79.60;;;;;;5087439;28;20197;-41
2023/01/03 04:18:11;;;;;;;664.67;598.50;;;20.70;79.40;;;;;;5086251;28;20199;-41
2023/01/03 04:20:39;;;;;;;648.30;583.50;;;20.70;79.20;;;;;;5087643;28;20213;-42
2023/01/03 04:23:06;;;;;;;660.50;593.47;;;20.70;79.10;;;;;;5086141;28;20202;-42
2023/01/03 04:25:32;;;;;;;652.30;587.58;;;20.70;79.10;;;;;;5088265;28;20209;-41
2023/01/03 04:27:59;;;;;;;670.22;602.72;;;20.70;79.90;;;;;;5085137;28;20578;-42
2023/01/03 04:30:26;;;;;;;660.85;595.95;;;20.70;79.00;;;;;;5087156;28;20202;-45
2023/01/03 04:32:53;;;;;;;665.60;597.53;;;20.70;79.00;;;;;;5082330;28;20724;-42
2023/01/03 04:35:19;;;;;;;669.33;599.72;;;20.70;78.90;;;;;;5081645;28;20195;-41
2023/01/03 04:37:47;;;;;;;650.13;584.50;;;20.70;79.00;;;;;;5086204;28;20712;-41
2023/01/03 04:40:14;;;;;;;662.47;597.33;;;20.70;78.90;;;;;;5089421;28;20199;-42
2023/01/03 04:45:25;;;;;;;664.05;598.63;;;20.70;78.90;;;;;;5082756;28;20301;-41
2023/01/03 04:47:53;;;;;;;632.10;572.90;;;20.60;78.90;;;;;;5086588;28;20204;-40
2023/01/03 04:50:20;;;;;;;643.75;584.20;;;20.60;78.90;;;;;;5085034;28;20205;-41
2023/01/03 04:52:48;;;;;;;639.65;579.85;;;20.60;79.00;;;;;;5085634;28;20210;-43
2023/01/03 04:55:14;;;;;;;645.20;584.15;;;20.50;79.00;;;;;;5082729;28;20194;-42
2023/01/03 04:57:41;;;;;;;663.95;601.85;;;20.50;79.10;;;;;;5085827;28;20186;-44
2023/01/03 05:00:09;;;;;;;642.70;581.83;;;20.50;79.20;;;;;;5087245;28;20202;-41
2023/01/03 05:02:36;;;;;;;639.97;582.97;;;20.50;79.20;;;;;;5086721;28;20199;-40
2023/01/03 05:05:03;;;;;;;673.30;607.70;;;20.50;79.50;;;;;;5087142;28;20330;-45
2023/01/03 05:07:30;;;;;;;671.33;606.17;;;20.60;79.20;;;;;;5091328;28;20205;-41
2023/01/03 05:09:58;;;;;;;641.63;580.50;;;20.80;78.50;;;;;;5083346;28;20190;-43
2023/01/03 05:12:25;;;;;;;651.35;587.20;;;20.90;78.00;;;;;;5085260;28;20206;-42
2023/01/03 05:14:52;;;;;;;661.08;598.10;;;21.10;77.50;;;;;;5085710;28;20197;-41
2023/01/03 05:17:20;;;;;;;670.03;606.40;;;21.20;76.90;;;;;;5088912;28;20198;-42
2023/01/03 05:28:02;;;;;;;664.95;601.50;;;21.60;75.60;;;;;;5088415;28;20195;-42
2023/01/03 05:30:29;;;;;;;669.63;605.50;;;21.70;75.40;;;;;;5089492;28;20194;-41
2023/01/03 05:32:55;;;;;;;664.92;600.97;;;21.80;75.10;;;;;;5084890;28;20690;-42
2023/01/03 05:35:22;;;;;;;684.78;617.88;;;21.80;74.80;;;;;;5088750;28;20199;-43
2023/01/03 05:37:52;;;;;;;693.22;626.13;;;21.90;74.90;;;;;;5082477;28;20190;-41
2023/01/03 05:40:20;;;;;;;694.42;628.42;;;21.90;74.90;;;;;;5088353;28;20206;-41
2023/01/03 05:42:48;;;;;;;698.25;633.50;;;21.80;75.00;;;;;;5089006;28;20878;-41
2023/01/03 05:45:15;;;;;;;644.00;594.58;;;21.80;75.10;;;;;;5089620;28;20226;-41
2023/01/03 05:47:42;;;;;;;668.15;617.45;;;21.70;75.10;;;;;;5081328;28;20264;-44
2023/01/03 05:50:09;;;;;;;671.65;616.70;;;21.70;75.40;;;;;;5089156;28;20566;-41
2023/01/03 05:52:36;;;;;;;695.35;631.92;;;21.60;75.40;;;;;;5088488;28;20205;-42
2023/01/03 05:55:02;;;;;;;648.17;599.65;;;21.70;75.40;;;;;;5087337;28;20194;-41
2023/01/03 05:57:30;;;;;;;706.50;642.28;;;21.80;75.10;;;;;;5084721;28;20859;-41
2023/01/03 05:59:57;;;;;;;715.47;650.30;;;21.90;74.80;;;;;;5083030;28;20186;-41
2023/01/03 06:02:24;;;;;;;663.97;617.70;;;21.90;74.50;;;;;;5082610;28;20648;-44
2023/01/03 06:04:50;;;;;;;644.03;595.70;;;22.00;74.60;;;;;;5087785;28;20194;-42
2023/01/03 06:07:17;;;;;;;706.13;640.92;;;22.00;74.50;;;;;;5089201;28;20583;-41
2023/01/03 06:09:44;;;;;;;637.38;598.83;;;22.10;74.20;;;;;;5085361;28;20277;-42
2023/01/03 06:12:11;;;;;;;622.10;584.33;;;22.10;74.00;;;;;;5086623;28;20208;-41
2023/01/03 06:14:39;;;;;;;636.03;596.88;;;22.20;74.00;;;;;;5085018;28;20226;-41
2023/01/03 06:19:55;;;;;;;616.40;578.58;;;22.10;73.80;;;;;;5076170;28;20233;-41
2023/01/03 06:22:21;;;;;;;626.13;588.97;;;22.10;74.00;;;;;;5087079;28;20191;-45
2023/01/03 06:24:48;;;;;;;644.38;603.53;;;22.10;74.20;;;;;;5082205;28;20210;-43
2023/01/03 06:27:15;;;;;;;666.45;621.55;;;22.00;74.30;;;;;;5085173;28;20203;-42
2023/01/03 06:29:43;;;;;;;720.83;655.58;;;22.00;74.50;;;;;;5083754;28;20728;-40
2023/01/03 06:32:09;;;;;;;592.65;560.10;;;21.90;74.50;;;;;;5081890;28;20211;-41
2023/01/03 06:34:36;;;;;;;596.55;564.03;;;21.90;74.60;;;;;;5085692;28;20214;-46
2023/01/03 06:37:03;;;;;;;602.03;568.60;;;21.90;74.60;;;;;;5078812;28;20195;-41
2023/01/03 06:39:32;;;;;;;582.08;551.08;;;21.90;74.80;;;;;;5080095;28;20199;-41
2023/01/03 06:42:38;;;;;;;570.78;540.75;;;21.90;74.70;;;;;;5078463;28;20348;-42
2023/01/03 06:53:10;;;;;;;575.25;544.55;;;21.90;74.60;;;;;;5085212;28;20261;-42
2023/01/03 06:53:14;;;;;;;586.60;554.10;;;22.00;74.10;;;;;;5081326;28;20225;-41
2023/01/03 06:55:41;;;;;;;586.55;554.03;;;22.00;74.00;;;;;;5085026;28;20613;-45
2023/01/03 06:58:08;;;;;;;598.67;566.05;;;22.20;73.90;;;;;;5086089;28;20191;-43
2023/01/03 07:00:38;;;;;;;600.63;568.30;;;22.20;73.80;;;;;;5084073;28;20195;-46
2023/01/03 07:03:05;;;;;;;601.35;568.20;;;22.10;73.60;;;;;;5083944;28;20210;-43
2023/01/03 07:05:32;;;;;;;618.25;584.38;;;22.10;73.60;;;;;;5085433;28;20212;-44
2023/01/03 07:07:59;;;;;;;601.50;568.95;;;22.30;74.00;;;;;;5084502;28;20188;-44
2023/01/03 07:10:26;;;;;;;578.42;547.38;;;22.10;73.90;;;;;;5085752;28;20207;-46
2023/01/03 07:15:43;;;;;;;609.92;576.13;;;22.00;74.10;;;;;;5086437;28;20611;-43
2023/01/03 07:18:10;;;;;;;609.80;575.25;;;22.00;74.10;;;;;;5086748;28;20190;-44
2023/01/03 07:20:41;;;;;;;602.95;568.92;;;22.00;74.10;;;;;;5089199;28;20215;-43
2023/01/03 07:23:08;;;;;;;619.58;584.67;;;22.10;74.10;;;;;;5084601;28;20340;-43
2023/01/03 07:25:34;;;;;;;626.58;591.25;;;22.10;73.90;;;;;;5088287;28;20199;-44
2023/01/03 07:28:01;;;;;;;607.17;573.38;;;22.10;73.90;;;;;;5090428;28;20546;-44
2023/01/03 07:30:28;;;;;;;611.72;578.03;;;22.10;73.90;;;;;;5085340;28;20290;-44
2023/01/03 07:32:57;;;;;;;617.53;583.42;;;22.20;73.80;;;;;;5082380;28;20228;-45
2023/01/03 07:35:24;;;;;;;611.80;577.40;;;22.20;73.60;;;;;;5087930;28;20199;-44
2023/01/03 07:37:51;;;;;;;605.60;571.28;;;22.20;74.20;;;;;;5089627;28;20191;-44
2023/01/03 07:40:18;;;;;;;621.40;587.13;;;22.20;74.10;;;;;;5089217;28;20198;-44
2023/01/03 07:45:28;;;;;;;617.58;582.15;;;22.30;73.40;;;;;;5085759;28;20243;-43
2023/01/03 07:47:57;;;;;;;621.13;585.78;;;22.30;73.50;;;;;;5084239;28;20207;-43
2023/01/03 07:50:23;;;;;;;629.45;592.75;;;22.20;73.50;;;;;;5084922;28;20203;-43
2023/01/03 07:52:50;;;;;;;649.55;612.60;;;22.20;73.70;;;;;;5089690;28;20191;-44
2023/01/03 07:55:17;;;;;;;644.53;606.20;;;22.20;73.80;;;;;;5088243;28;20211;-45
2023/01/03 07:57:44;;;;;;;644.22;606.45;;;22.10;73.80;;;;;;5087028;28;20214;-43
2023/01/03 08:00:12;;;;;;;655.40;617.38;;;22.10;74.00;;;;;;5089243;28;20195;-44
2023/01/03 08:02:38;;;;;;;644.40;607.75;;;22.10;74.10;;;;;;5083181;28;20206;-44
2023/01/03 08:05:07;;;;;;;628.72;592.42;;;22.00;74.00;;;;;;5089933;28;20206;-45
2023/01/03 08:07:35;;;;;;;654.25;616.38;;;22.00;74.10;;;;;;5090198;28;20237;-44
2023/01/03 08:15:30;;;;;;;631.20;595.10;;;22.00;74.10;;;;;;5087307;28;20219;-44
2023/01/03 08:17:56;;;;;;;632.47;596.90;;;22.10;74.00;;;;;;5084870;28;20195;-45
2023/01/03 08:20:24;;;;;;;630.28;594.58;;;22.10;74.00;;;;;;5091026;28;20219;-43
2023/01/03 08:22:51;;;;;;;636.53;599.13;;;22.10;73.80;;;;;;5085278;28;20199;-44
2023/01/03 08:25:18;;;;;;;637.33;600.55;;;22.10;73.70;;;;;;5087771;28;20195;-44
2023/01/03 08:27:45;;;;;;;626.10;589.83;;;22.20;73.60;;;;;;5084986;28;20203;-43
2023/01/03 08:30:12;;;;;;;635.88;598.65;;;22.20;73.50;;;;;;5087870;28;20192;-43
2023/01/03 08:32:39;;;;;;;652.83;615.03;;;22.20;73.40;;;;;;5084530;28;20217;-44
2023/01/03 08:35:06;;;;;;;631.42;594.47;;;22.20;73.30;;;;;;5087251;28;20230;-43
2023/01/03 08:37:34;;;;;;;654.38;615.28;;;22.20;73.20;;;;;;5083073;28;20190;-44
2023/01/03 08:40:03;;;;;;;637.85;601.40;;;22.20;73.30;;;;;;5086015;28;20198;-44
2023/01/03 08:42:31;;;;;;;632.15;595.30;;;22.20;73.50;;;;;;5091581;28;20583;-44
2023/01/03 08:45:02;;;;;;;623.42;587.85;;;22.20;73.50;;;;;;5087890;28;20757;-43
2023/01/03 08:47:29;;;;;;;608.72;574.63;;;22.10;73.60;;;;;;5085429;28;20257;-44
2023/01/03 08:49:56;;;;;;;617.30;582.90;;;22.10;73.60;;;;;;5084964;28;20556;-43
2023/01/03 08:52:23;;;;;;;644.35;608.33;;;22.10;73.50;;;;;;5088948;28;20551;-43
2023/01/03 08:54:51;;;;;;;630.88;596.38;;;22.30;73.70;;;;;;5085495;28;20218;-43
2023/01/03 08:57:18;;;;;;;607.45;573.50;;;22.20;73.50;;;;;;5087965;28;20686;-43
2023/01/03 08:59:44;;;;;;;623.65;589.45;;;22.20;73.40;;;;;;5086090;28;20200;-43
2023/01/03 09:02:11;;;;;;;625.78;590.92;;;22.20;73.80;;;;;;5087349;28;20196;-44
2023/01/03 09:04:38;;;;;;;625.70;590.47;;;22.20;74.10;;;;;;5082611;28;20663;-43
2023/01/03 09:07:05;;;;;;;617.40;583.17;;;22.10;74.00;;;;;;5086917;28;20192;-43
2023/01/03 09:09:32;;;;;;;650.55;612.97;;;22.10;74.10;;;;;;5088596;28;20203;-43
2023/01/03 09:12:00;;;;;;;644.38;606.72;;;22.00;74.30;;;;;;5087921;28;20195;-43
2023/01/03 09:14:27;;;;;;;622.10;587.00;;;21.90;74.60;;;;;;5086239;28;20219;-43
2023/01/03 09:16:53;;;;;;;613.63;580.03;;;21.80;74.90;;;;;;5080051;28;20199;-43
2023/01/03 09:19:20;;;;;;;607.17;573.38;;;21.80;75.10;;;;;;5085380;28;20208;-43
2023/01/03 09:21:47;;;;;;;625.35;591.25;;;21.80;75.40;;;;;;5089109;28;20563;-44
2023/01/03 09:24:13;;;;;;;633.15;596.60;;;21.80;75.40;;;;;;5087761;28;20202;-46
2023/01/03 09:26:40;;;;;;;626.17;591.80;;;21.90;75.10;;;;;;5087135;28;20216;-42
2023/01/03 09:29:08;;;;;;;607.33;573.58;;;21.90;75.80;;;;;;5090603;28;20195;-46
2023/01/03 09:31:35;;;;;;;621.13;586.50;;;22.00;74.80;;;;;;5089081;28;20195;-43
2023/01/03 09:34:04;;;;;;;635.70;599.60;;;22.10;74.70;;;;;;5077394;28;20222;-43
2023/01/03 09:36:30;;;;;;;634.25;597.47;;;22.30;74.80;;;;;;5083775;28;20297;-43
2023/01/03 09:38:57;;;;;;;624.42;588.83;;;22.10;74.40;;;;;;5088176;28;20205;-43
2023/01/03 09:41:27;;;;;;;628.13;592.38;;;22.20;74.30;;;;;;5084110;28;20219;-43
2023/01/03 09:43:58;;;;;;;634.35;597.85;;;22.20;74.10;;;;;;5082950;28;20201;-43
2023/01/03 09:46:28;;;;;;;650.42;613.00;;;22.20;74.00;;;;;;5085251;28;20205;-43
2023/01/03 09:48:56;;;;;;;662.83;624.53;;;22.20;73.90;;;;;;5084330;28;20196;-43
2023/01/03 10:06:12;;;;;;;634.10;596.10;;;22.20;74.00;;;;;;5006931;28;20223;-45
2023/01/03 10:08:52;;;;;;;656.10;617.05;;;22.20;74.10;;;;;;5070685;28;20674;-42
2023/01/03 10:11:25;;;;;;;640.13;602.63;;;22.10;74.20;;;;;;5087292;28;20221;-42
2023/01/03 10:14:05;;;;;;;640.80;602.40;;;22.20;74.70;;;;;;5087754;28;20195;-42
2023/01/03 10:16:41;;;;;;;658.55;620.15;;;22.20;74.50;;;;;;5084884;28;20197;-42
2023/01/03 10:19:38;;;;;;;663.22;624.72;;;22.20;74.60;;;;;;5085170;28;20227;-41
2023/01/03 10:22:09;;;;;;;639.40;600.55;;;22.20;74.40;;;;;;5080356;28;20204;-43
2023/01/03 10:24:44;;;;;;;631.22;593.95;;;22.20;75.00;;;;;;5087968;28;20665;-43
2023/01/03 10:27:15;;;;;;;648.00;610.33;;;22.20;75.10;;;;;;5086471;28;20218;-41
2023/01/03 10:29:42;;;;;;;633.28;596.45;;;22.20;74.90;;;;;;5089392;28;20567;-41
2023/01/03 10:32:30;;;;;;;628.75;592.28;;;22.20;74.80;;;;;;5083762;28;20210;-42
2023/01/03 10:35:17;;;;;;;631.17;594.58;;;21.90;70.40;;;;;;5088081;28;20218;-41
2023/01/03 10:37:45;;;;;;;632.42;595.95;;;21.70;72.50;;;;;;5081480;28;20193;-42
2023/01/03 10:40:13;;;;;;;636.55;598.53;;;21.80;72.10;;;;;;5083105;28;20191;-41
2023/01/03 10:42:41;;;;;;;625.95;589.40;;;21.90;72.10;;;;;;5084504;28;20198;-41
2023/01/03 10:45:12;;;;;;;630.22;592.50;;;22.00;72.20;;;;;;5086936;28;20460;-41
2023/01/03 10:47:39;;;;;;;630.95;592.45;;;22.00;72.20;;;;;;5081974;28;20679;-41
2023/01/03 10:50:20;;;;;;;619.70;583.33;;;22.10;72.30;;;;;;5085905;28;20202;-41
2023/01/03 10:52:53;;;;;;;647.30;609.80;;;22.10;72.30;;;;;;5086516;28;20674;-41
2023/01/03 10:55:22;;;;;;;665.92;625.50;;;22.10;72.30;;;;;;5085504;28;20637;-42
2023/01/03 10:57:59;;;;;;;641.90;603.05;;;22.10;72.30;;;;;;5087752;28;20250;-40
2023/01/03 11:00:30;;;;;;;665.90;625.88;;;22.20;72.40;;;;;;5083057;28;20206;-41
2023/01/03 11:03:09;;;;;;;655.88;615.55;;;22.20;72.40;;;;;;5075350;28;20195;-40
2023/01/03 11:05:38;;;;;;;666.10;624.90;;;22.20;72.40;;;;;;5087062;28;20204;-40
2023/01/03 11:08:14;;;;;;;672.78;631.35;;;22.20;72.40;;;;;;5085232;28;20199;-41
2023/01/03 11:10:50;;;;;;;659.15;617.90;;;22.20;72.40;;;;;;5083689;28;20190;-42
2023/01/03 11:13:24;;;;;;;655.33;614.40;;;22.20;72.40;;;;;;5084728;28;20559;-42
2023/01/03 11:15:54;;;;;;;667.97;626.33;;;22.20;72.40;;;;;;5084819;28;20211;-41
2023/01/03 11:18:21;;;;;;;656.15;614.85;;;22.20;72.40;;;;;;5084128;28;20535;-42
2023/01/03 11:20:57;;;;;;;658.08;618.67;;;22.20;72.40;;;;;;5083075;28;20219;-42
2023/01/03 11:23:33;;;;;;;651.42;611.53;;;22.20;72.50;;;;;;5079342;28;20562;-41
2023/01/03 11:26:09;;;;;;;669.50;629.22;;;22.20;72.60;;;;;;5079456;28;20206;-42
2023/01/03 11:29:04;;;;;;;636.03;598.30;;;22.20;72.60;;;;;;5084599;28;20199;-43
2023/01/03 11:31:39;;;;;;;665.95;625.20;;;22.20;73.50;;;;;;5075636;28;20446;-41
2023/01/03 11:34:20;;;;;;;654.88;614.33;;;22.00;72.60;;;;;;5080910;28;20202;-42
2023/01/03 11:36:53;;;;;;;660.40;621.35;;;22.10;72.90;;;;;;5083525;28;20254;-42
2023/01/03 11:39:33;;;;;;;662.25;621.85;;;22.10;73.10;;;;;;5086059;28;20277;-42
2023/01/03 11:42:30;;;;;;;662.35;622.40;;;22.00;73.80;;;;;;5082548;28;20674;-42
2023/01/03 11:45:26;;;;;;;678.55;635.30;;;21.90;73.30;;;;;;5077536;28;20751;-48
2023/01/03 11:48:05;;;;;;;645.22;604.45;;;21.80;73.20;;;;;;5064039;28;20195;-47
2023/01/03 11:50:49;;;;;;;637.85;597.80;;;22.10;72.60;;;;;;5087408;28;20665;-45
2023/01/03 11:53:32;;;;;;;643.50;603.20;;;22.60;71.70;;;;;;5090904;28;20559;-51
2023/01/03 11:56:19;;;;;;;665.85;623.35;;;23.00;71.30;;;;;;5084050;28;20233;-46
2023/01/03 11:59:14;;;;;;;662.53;620.38;;;23.30;69.70;;;;;;5082151;28;20214;-48
2023/01/03 12:02:17;;;;;;;644.30;601.70;;;23.30;69.30;;;;;;5082230;28;20737;-45
2023/01/03 12:04:56;;;;;;;652.97;611.30;;;23.30;69.50;;;;;;5086451;28;20199;-47
2023/01/03 12:07:32;;;;;;;638.70;597.72;;;23.50;69.40;;;;;;5081717;28;20560;-47
2023/01/03 12:10:07;;;;;;;656.90;614.72;;;23.80;68.90;;;;;;5083744;28;20203;-47
2023/01/03 12:13:07;;;;;;;676.08;633.42;;;23.90;68.60;;;;;;5074969;28;20199;-49
2023/01/03 12:15:42;;;;;;;650.05;607.88;;;23.90;69.60;;;;;;5085968;28;20259;-45
2023/01/03 12:18:18;;;;;;;664.00;621.90;;;23.80;68.90;;;;;;5086374;28;20195;-46
2023/01/03 12:20:51;;;;;;;656.70;614.38;;;23.90;68.90;;;;;;5087972;28;20226;-42
2023/01/03 12:23:30;;;;;;;671.88;628.92;;;23.90;68.90;;;;;;5087279;28;20204;-46
2023/01/03 12:26:02;;;;;;;682.53;639.05;;;23.90;69.00;;;;;;5087862;28;20206;-47
2023/01/03 12:28:35;;;;;;;673.55;633.85;;;23.90;69.00;;;;;;5087595;28;20203;-44
2023/01/03 12:31:05;;;;;;;656.95;617.03;;;23.90;69.00;;;;;;5088395;28;20198;-46
2023/01/03 12:33:39;;;;;;;672.93;629.63;;;23.90;69.00;;;;;;5084716;28;20560;-46
2023/01/03 12:36:21;;;;;;;660.60;618.22;;;23.90;69.10;;;;;;5085260;28;20472;-47
2023/01/03 12:38:55;;;;;;;675.43;632.23;;;23.90;69.00;;;;;;5080513;28;20200;-46
2023/01/03 12:41:30;;;;;;;697.97;653.92;;;23.80;69.10;;;;;;5089839;28;20949;-49
2023/01/03 12:44:02;;;;;;;685.90;641.30;;;23.80;69.10;;;;;;5078286;28;20202;-47
2023/01/03 12:46:34;;;;;;;674.07;631.17;;;23.80;70.00;;;;;;5088099;28;20205;-49
2023/01/03 12:49:07;;;;;;;693.83;650.05;;;23.70;69.20;;;;;;5088995;28;20822;-46
2023/01/03 12:51:35;;;;;;;697.13;652.33;;;23.60;69.30;;;;;;5088550;28;20196;-48
2023/01/03 12:54:14;;;;;;;708.37;663.07;;;23.60;69.40;;;;;;5084214;28;20466;-48
2023/01/03 12:56:53;;;;;;;685.30;640.97;;;23.60;69.60;;;;;;5081479;28;20489;-51
2023/01/03 12:59:43;;;;;;;689.72;645.67;;;23.50;69.60;;;;;;5092989;28;20187;-48
2023/01/03 13:02:21;;;;;;;683.13;640.53;;;23.50;70.70;;;;;;5089103;28;20200;-50
2023/01/03 13:04:50;;;;;;;691.13;648.83;;;23.50;70.00;;;;;;5088562;28;20582;-45
2023/01/03 13:07:22;;;;;;;669.88;629.40;;;23.50;70.20;;;;;;5086478;28;20196;-45
2023/01/03 13:09:54;;;;;;;691.55;650.33;;;23.50;70.30;;;;;;5083404;28;20596;-45
2023/01/03 13:12:27;;;;;;;694.07;651.07;;;23.40;70.40;;;;;;5085195;28;20200;-45
2023/01/03 13:14:55;;;;;;;674.20;632.40;;;23.40;70.40;;;;;;5086260;28;20484;-46
2023/01/03 13:17:25;;;;;;;692.15;650.63;;;23.50;70.50;;;;;;5082826;28;20464;-44
2023/01/03 13:19:54;;;;;;;676.03;635.63;;;23.40;70.50;;;;;;5087414;28;20215;-43
2023/01/03 13:22:50;;;;;;;694.13;652.42;;;23.40;70.60;;;;;;5086067;28;20192;-43
2023/01/03 13:25:36;;;;;;;673.47;633.72;;;23.40;70.80;;;;;;5087674;28;20203;-43
2023/01/03 13:28:08;;;;;;;692.42;650.38;;;23.40;70.90;;;;;;5089981;28;20659;-43
2023/01/03 13:30:37;;;;;;;666.90;626.30;;;23.40;70.90;;;;;;5087891;28;20371;-46
2023/01/03 13:33:17;;;;;;;714.35;668.75;;;23.40;71.20;;;;;;5084873;28;20777;-46
2023/01/03 13:35:59;;;;;;;709.40;664.00;;;23.40;71.00;;;;;;5089811;28;20820;-44